sensor_id;sensor_type;location;lat;lon;timestamp;temperature;humidity
40434;DHT22;26146;51.114;5.654;2022-08-01T00:02:40;21.70;99.90
40434;DHT22;26146;51.114;5.654;2022-08-01T00:06:41;21.70;99.90
40434;DHT22;26146;51.114;5.654;2022-08-01T00:10:42;21.70;99.90
40434;DHT22;26146;51.114;5.654;2022-08-01T00:14:43;21.60;99.90
40434;DHT22;26146;51.114;5.654;2022-08-01T00:18:44;21.60;99.90
40434;DHT22;26146;51.114;5.654;2022-08-01T00:22:45;21.60;99.90
40434;DHT22;26146;51.114;5.654;2022-08-01T00:26:49;21.50;99.90
40434;DHT22;26146;51.114;5.654;2022-08-01T00:30:49;21.50;99.90
40434;DHT22;26146;51.114;5.654;2022-08-01T00:34:50;21.40;99.90
40434;DHT22;26146;51.114;5.654;2022-08-01T00:38:51;21.50;99.90
40434;DHT22;26146;51.114;5.654;2022-08-01T00:42:55;21.50;99.90
40434;DHT22;26146;51.114;5.654;2022-08-01T00:46:56;21.50;99.90
40434;DHT22;26146;51.114;5.654;2022-08-01T00:50:57;21.50;99.90
40434;DHT22;26146;51.114;5.654;2022-08-01T00:54:58;21.50;99.90
40434;DHT22;26146;51.114;5.654;2022-08-01T00:58:59;21.40;99.90
40434;DHT22;26146;51.114;5.654;2022-08-01T01:03:00;21.50;99.90
40434;DHT22;26146;51.114;5.654;2022-08-01T01:12:12;21.40;99.90
40434;DHT22;26146;51.114;5.654;2022-08-01T01:16:14;21.50;99.90
40434;DHT22;26146;51.114;5.654;2022-08-01T01:20:16;21.50;99.90
40434;DHT22;26146;51.114;5.654;2022-08-01T01:24:44;21.60;99.90
40434;DHT22;26146;51.114;5.654;2022-08-01T01:32:59;21.50;99.90
40434;DHT22;26146;51.114;5.654;2022-08-01T01:37:04;21.50;99.90
40434;DHT22;26146;51.114;5.654;2022-08-01T01:41:06;21.40;99.90
40434;DHT22;26146;51.114;5.654;2022-08-01T01:45:08;21.20;99.90
40434;DHT22;26146;51.114;5.654;2022-08-01T01:49:10;21.20;99.90
40434;DHT22;26146;51.114;5.654;2022-08-01T01:53:13;21.30;99.90
40434;DHT22;26146;51.114;5.654;2022-08-01T01:57:15;21.50;99.90
40434;DHT22;26146;51.114;5.654;2022-08-01T02:01:17;21.50;99.90
40434;DHT22;26146;51.114;5.654;2022-08-01T02:05:19;21.50;99.90
40434;DHT22;26146;51.114;5.654;2022-08-01T02:09:22;21.40;99.90
40434;DHT22;26146;51.114;5.654;2022-08-01T02:13:24;21.00;99.90
40434;DHT22;26146;51.114;5.654;2022-08-01T02:17:26;21.00;99.90
40434;DHT22;26146;51.114;5.654;2022-08-01T02:21:57;20.90;99.90
40434;DHT22;26146;51.114;5.654;2022-08-01T02:26:01;21.00;99.90
40434;DHT22;26146;51.114;5.654;2022-08-01T02:30:06;21.00;99.90
40434;DHT22;26146;51.114;5.654;2022-08-01T02:34:10;21.10;99.90
40434;DHT22;26146;51.114;5.654;2022-08-01T02:38:14;21.10;99.90
40434;DHT22;26146;51.114;5.654;2022-08-01T02:42:18;20.90;99.90
40434;DHT22;26146;51.114;5.654;2022-08-01T02:46:27;20.90;99.90
40434;DHT22;26146;51.114;5.654;2022-08-01T02:50:31;20.90;99.90
40434;DHT22;26146;51.114;5.654;2022-08-01T02:54:36;21.00;99.90
40434;DHT22;26146;51.114;5.654;2022-08-01T02:58:38;21.10;99.90
40434;DHT22;26146;51.114;5.654;2022-08-01T03:02:40;20.90;99.90
40434;DHT22;26146;51.114;5.654;2022-08-01T03:06:43;21.10;99.90
40434;DHT22;26146;51.114;5.654;2022-08-01T03:10:46;21.10;99.90
40434;DHT22;26146;51.114;5.654;2022-08-01T03:14:49;21.00;99.90
40434;DHT22;26146;51.114;5.654;2022-08-01T03:18:53;21.10;99.90
40434;DHT22;26146;51.114;5.654;2022-08-01T03:22:56;20.90;99.90
40434;DHT22;26146;51.114;5.654;2022-08-01T03:26:58;21.00;99.90
40434;DHT22;26146;51.114;5.654;2022-08-01T03:31:02;20.80;99.90
40434;DHT22;26146;51.114;5.654;2022-08-01T03:35:05;20.50;99.90
40434;DHT22;26146;51.114;5.654;2022-08-01T03:39:09;20.70;99.90
40434;DHT22;26146;51.114;5.654;2022-08-01T03:43:20;20.70;99.90
40434;DHT22;26146;51.114;5.654;2022-08-01T03:47:32;20.60;99.90
40434;DHT22;26146;51.114;5.654;2022-08-01T03:51:35;20.40;99.90
40434;DHT22;26146;51.114;5.654;2022-08-01T03:55:39;20.30;99.90
40434;DHT22;26146;51.114;5.654;2022-08-01T03:59:42;20.50;99.90
40434;DHT22;26146;51.114;5.654;2022-08-01T04:03:51;20.70;99.90
40434;DHT22;26146;51.114;5.654;2022-08-01T04:07:52;21.00;99.90
40434;DHT22;26146;51.114;5.654;2022-08-01T04:11:56;20.90;99.90
40434;DHT22;26146;51.114;5.654;2022-08-01T04:15:58;20.90;99.90
40434;DHT22;26146;51.114;5.654;2022-08-01T04:19:59;20.90;99.90
40434;DHT22;26146;51.114;5.654;2022-08-01T04:24:12;20.90;99.90
40434;DHT22;26146;51.114;5.654;2022-08-01T04:28:14;21.10;99.90
40434;DHT22;26146;51.114;5.654;2022-08-01T04:32:18;20.80;99.90
40434;DHT22;26146;51.114;5.654;2022-08-01T04:36:23;20.70;99.90
40434;DHT22;26146;51.114;5.654;2022-08-01T04:40:24;20.40;99.90
40434;DHT22;26146;51.114;5.654;2022-08-01T04:44:26;20.70;99.90
40434;DHT22;26146;51.114;5.654;2022-08-01T04:48:28;20.80;99.90
40434;DHT22;26146;51.114;5.654;2022-08-01T04:52:35;20.80;99.90
40434;DHT22;26146;51.114;5.654;2022-08-01T04:56:37;20.90;99.90
40434;DHT22;26146;51.114;5.654;2022-08-01T05:00:38;21.00;99.90
40434;DHT22;26146;51.114;5.654;2022-08-01T05:04:40;21.20;99.90
40434;DHT22;26146;51.114;5.654;2022-08-01T05:08:41;21.40;99.90
40434;DHT22;26146;51.114;5.654;2022-08-01T05:12:42;21.40;99.90
40434;DHT22;26146;51.114;5.654;2022-08-01T05:16:44;21.50;99.90
40434;DHT22;26146;51.114;5.654;2022-08-01T05:20:44;21.60;99.90
40434;DHT22;26146;51.114;5.654;2022-08-01T05:24:45;21.60;99.90
40434;DHT22;26146;51.114;5.654;2022-08-01T05:28:47;21.50;99.90
40434;DHT22;26146;51.114;5.654;2022-08-01T05:32:48;21.40;99.90
40434;DHT22;26146;51.114;5.654;2022-08-01T05:36:52;21.10;99.90
40434;DHT22;26146;51.114;5.654;2022-08-01T05:40:53;21.20;99.90
40434;DHT22;26146;51.114;5.654;2022-08-01T05:44:53;21.20;99.90
40434;DHT22;26146;51.114;5.654;2022-08-01T05:48:54;21.30;99.90
40434;DHT22;26146;51.114;5.654;2022-08-01T05:52:55;21.50;99.90
40434;DHT22;26146;51.114;5.654;2022-08-01T05:56:56;21.60;99.90
40434;DHT22;26146;51.114;5.654;2022-08-01T06:01:00;21.60;99.90
40434;DHT22;26146;51.114;5.654;2022-08-01T06:05:01;21.50;99.90
40434;DHT22;26146;51.114;5.654;2022-08-01T06:09:02;21.20;99.90
40434;DHT22;26146;51.114;5.654;2022-08-01T06:13:03;21.30;99.90
40434;DHT22;26146;51.114;5.654;2022-08-01T06:17:04;21.40;99.90
40434;DHT22;26146;51.114;5.654;2022-08-01T06:21:05;21.30;99.90
40434;DHT22;26146;51.114;5.654;2022-08-01T06:25:06;21.60;99.90
40434;DHT22;26146;51.114;5.654;2022-08-01T06:29:10;22.10;99.90
40434;DHT22;26146;51.114;5.654;2022-08-01T06:33:11;22.40;99.90
40434;DHT22;26146;51.114;5.654;2022-08-01T06:37:12;22.60;99.90
40434;DHT22;26146;51.114;5.654;2022-08-01T06:41:14;22.50;99.90
40434;DHT22;26146;51.114;5.654;2022-08-01T06:45:15;22.20;99.90
40434;DHT22;26146;51.114;5.654;2022-08-01T06:49:16;21.90;99.90
40434;DHT22;26146;51.114;5.654;2022-08-01T06:53:19;22.10;99.90
40434;DHT22;26146;51.114;5.654;2022-08-01T06:57:20;22.30;99.90
40434;DHT22;26146;51.114;5.654;2022-08-01T07:01:21;22.30;99.90
40434;DHT22;26146;51.114;5.654;2022-08-01T07:05:22;22.40;99.90
40434;DHT22;26146;51.114;5.654;2022-08-01T07:09:24;22.40;99.90
40434;DHT22;26146;51.114;5.654;2022-08-01T07:13:26;22.40;99.90
40434;DHT22;26146;51.114;5.654;2022-08-01T07:17:31;22.70;99.90
40434;DHT22;26146;51.114;5.654;2022-08-01T07:21:33;23.20;99.90
40434;DHT22;26146;51.114;5.654;2022-08-01T07:25:34;23.60;99.90
40434;DHT22;26146;51.114;5.654;2022-08-01T07:29:35;23.70;99.90
40434;DHT22;26146;51.114;5.654;2022-08-01T07:33:38;23.50;99.90
40434;DHT22;26146;51.114;5.654;2022-08-01T07:37:39;23.50;99.90
40434;DHT22;26146;51.114;5.654;2022-08-01T07:41:40;23.20;99.90
40434;DHT22;26146;51.114;5.654;2022-08-01T07:45:41;23.30;99.90
40434;DHT22;26146;51.114;5.654;2022-08-01T07:49:42;23.50;99.90
40434;DHT22;26146;51.114;5.654;2022-08-01T07:53:43;23.50;99.90
40434;DHT22;26146;51.114;5.654;2022-08-01T07:57:44;23.40;99.90
40434;DHT22;26146;51.114;5.654;2022-08-01T08:01:45;23.50;99.90
40434;DHT22;26146;51.114;5.654;2022-08-01T08:05:46;23.70;99.90
40434;DHT22;26146;51.114;5.654;2022-08-01T08:09:47;24.20;99.90
40434;DHT22;26146;51.114;5.654;2022-08-01T08:13:55;24.30;99.90
40434;DHT22;26146;51.114;5.654;2022-08-01T08:17:57;24.30;99.90
40434;DHT22;26146;51.114;5.654;2022-08-01T08:21:58;24.50;99.90
40434;DHT22;26146;51.114;5.654;2022-08-01T08:25:59;25.10;99.20
40434;DHT22;26146;51.114;5.654;2022-08-01T08:30:00;25.40;97.30
40434;DHT22;26146;51.114;5.654;2022-08-01T08:34:01;25.20;97.10
40434;DHT22;26146;51.114;5.654;2022-08-01T08:38:02;25.10;98.70
40434;DHT22;26146;51.114;5.654;2022-08-01T08:42:07;24.80;99.10
40434;DHT22;26146;51.114;5.654;2022-08-01T08:46:08;24.90;97.80
40434;DHT22;26146;51.114;5.654;2022-08-01T08:50:10;25.00;97.40
40434;DHT22;26146;51.114;5.654;2022-08-01T08:54:11;25.30;96.30
40434;DHT22;26146;51.114;5.654;2022-08-01T08:58:15;25.20;97.10
40434;DHT22;26146;51.114;5.654;2022-08-01T09:02:21;25.40;96.60
40434;DHT22;26146;51.114;5.654;2022-08-01T09:06:22;25.80;96.40
40434;DHT22;26146;51.114;5.654;2022-08-01T09:10:23;25.40;95.50
40434;DHT22;26146;51.114;5.654;2022-08-01T09:14:25;25.70;94.60
40434;DHT22;26146;51.114;5.654;2022-08-01T09:18:38;25.50;94.70
40434;DHT22;26146;51.114;5.654;2022-08-01T09:22:46;25.50;95.40
40434;DHT22;26146;51.114;5.654;2022-08-01T09:26:47;25.90;95.60
40434;DHT22;26146;51.114;5.654;2022-08-01T09:30:48;26.30;94.70
40434;DHT22;26146;51.114;5.654;2022-08-01T09:34:52;26.60;93.70
40434;DHT22;26146;51.114;5.654;2022-08-01T09:38:54;26.60;94.50
40434;DHT22;26146;51.114;5.654;2022-08-01T09:43:10;27.00;94.00
40434;DHT22;26146;51.114;5.654;2022-08-01T09:47:13;26.40;93.20
40434;DHT22;26146;51.114;5.654;2022-08-01T09:51:34;26.40;93.70
40434;DHT22;26146;51.114;5.654;2022-08-01T09:55:36;26.60;92.60
40434;DHT22;26146;51.114;5.654;2022-08-01T09:59:39;26.90;91.80
40434;DHT22;26146;51.114;5.654;2022-08-01T10:03:42;26.30;92.10
40434;DHT22;26146;51.114;5.654;2022-08-01T10:11:59;26.50;91.80
40434;DHT22;26146;51.114;5.654;2022-08-01T10:16:01;26.40;91.90
40434;DHT22;26146;51.114;5.654;2022-08-01T10:20:02;26.00;91.20
40434;DHT22;26146;51.114;5.654;2022-08-01T10:24:05;26.00;92.10
40434;DHT22;26146;51.114;5.654;2022-08-01T10:28:17;26.40;91.50
40434;DHT22;26146;51.114;5.654;2022-08-01T10:32:19;26.80;90.90
40434;DHT22;26146;51.114;5.654;2022-08-01T10:36:21;27.20;90.10
40434;DHT22;26146;51.114;5.654;2022-08-01T10:40:23;26.90;90.30
40434;DHT22;26146;51.114;5.654;2022-08-01T10:44:29;26.60;90.90
40434;DHT22;26146;51.114;5.654;2022-08-01T10:48:45;26.50;91.40
40434;DHT22;26146;51.114;5.654;2022-08-01T10:53:09;26.30;90.40
40434;DHT22;26146;51.114;5.654;2022-08-01T10:57:11;26.30;90.40
40434;DHT22;26146;51.114;5.654;2022-08-01T11:01:27;26.40;90.70
40434;DHT22;26146;51.114;5.654;2022-08-01T11:05:35;26.50;89.60
40434;DHT22;26146;51.114;5.654;2022-08-01T11:09:42;26.60;88.50
40434;DHT22;26146;51.114;5.654;2022-08-01T11:22:28;26.90;88.70
40434;DHT22;26146;51.114;5.654;2022-08-01T11:26:31;27.20;88.00
40434;DHT22;26146;51.114;5.654;2022-08-01T11:30:32;27.20;86.60
40434;DHT22;26146;51.114;5.654;2022-08-01T11:34:56;26.90;87.00
40434;DHT22;26146;51.114;5.654;2022-08-01T11:47:14;26.70;86.40
40434;DHT22;26146;51.114;5.654;2022-08-01T11:51:18;26.80;86.80
40434;DHT22;26146;51.114;5.654;2022-08-01T11:55:19;27.00;85.80
40434;DHT22;26146;51.114;5.654;2022-08-01T11:59:21;26.90;85.60
40434;DHT22;26146;51.114;5.654;2022-08-01T12:03:26;26.90;85.80
40434;DHT22;26146;51.114;5.654;2022-08-01T12:07:34;27.30;85.10
40434;DHT22;26146;51.114;5.654;2022-08-01T12:11:35;27.20;84.80
40434;DHT22;26146;51.114;5.654;2022-08-01T12:15:38;27.30;86.10
40434;DHT22;26146;51.114;5.654;2022-08-01T12:19:40;27.20;85.40
40434;DHT22;26146;51.114;5.654;2022-08-01T12:23:41;27.50;85.40
40434;DHT22;26146;51.114;5.654;2022-08-01T12:27:44;27.60;84.70
40434;DHT22;26146;51.114;5.654;2022-08-01T12:31:45;27.60;83.50
40434;DHT22;26146;51.114;5.654;2022-08-01T12:35:46;27.70;84.80
40434;DHT22;26146;51.114;5.654;2022-08-01T12:39:48;27.70;85.00
40434;DHT22;26146;51.114;5.654;2022-08-01T12:43:49;27.70;83.60
40434;DHT22;26146;51.114;5.654;2022-08-01T12:47:54;27.40;83.80
40434;DHT22;26146;51.114;5.654;2022-08-01T12:51:55;27.80;86.00
40434;DHT22;26146;51.114;5.654;2022-08-01T12:55:57;27.50;87.00
40434;DHT22;26146;51.114;5.654;2022-08-01T13:00:23;27.40;87.30
40434;DHT22;26146;51.114;5.654;2022-08-01T13:04:24;27.30;88.40
40434;DHT22;26146;51.114;5.654;2022-08-01T13:12:31;27.00;89.40
40434;DHT22;26146;51.114;5.654;2022-08-01T13:16:45;26.70;91.10
40434;DHT22;26146;51.114;5.654;2022-08-01T13:20:46;26.50;91.10
40434;DHT22;26146;51.114;5.654;2022-08-01T13:24:47;26.50;91.70
40434;DHT22;26146;51.114;5.654;2022-08-01T13:29:04;26.80;91.10
40434;DHT22;26146;51.114;5.654;2022-08-01T13:33:06;27.20;90.30
40434;DHT22;26146;51.114;5.654;2022-08-01T13:37:06;26.90;90.40
40434;DHT22;26146;51.114;5.654;2022-08-01T13:41:08;27.00;90.30
40434;DHT22;26146;51.114;5.654;2022-08-01T13:45:09;26.60;90.80
40434;DHT22;26146;51.114;5.654;2022-08-01T13:49:11;26.20;91.20
40434;DHT22;26146;51.114;5.654;2022-08-01T13:53:12;25.80;91.60
40434;DHT22;26146;51.114;5.654;2022-08-01T13:57:13;25.90;91.50
40434;DHT22;26146;51.114;5.654;2022-08-01T14:01:15;26.30;90.90
40434;DHT22;26146;51.114;5.654;2022-08-01T14:05:16;26.80;90.30
40434;DHT22;26146;51.114;5.654;2022-08-01T14:09:17;26.90;90.50
40434;DHT22;26146;51.114;5.654;2022-08-01T14:13:22;26.90;89.10
40434;DHT22;26146;51.114;5.654;2022-08-01T14:17:23;26.60;89.70
40434;DHT22;26146;51.114;5.654;2022-08-01T14:21:24;26.90;90.20
40434;DHT22;26146;51.114;5.654;2022-08-01T14:25:27;27.10;88.10
40434;DHT22;26146;51.114;5.654;2022-08-01T14:29:27;26.80;88.20
40434;DHT22;26146;51.114;5.654;2022-08-01T14:33:28;27.10;88.00
40434;DHT22;26146;51.114;5.654;2022-08-01T14:37:29;27.10;87.90
40434;DHT22;26146;51.114;5.654;2022-08-01T14:41:33;27.20;86.00
40434;DHT22;26146;51.114;5.654;2022-08-01T14:45:36;27.00;85.20
40434;DHT22;26146;51.114;5.654;2022-08-01T14:49:37;27.20;84.00
40434;DHT22;26146;51.114;5.654;2022-08-01T14:53:40;26.90;84.10
40434;DHT22;26146;51.114;5.654;2022-08-01T14:57:42;26.50;85.90
40434;DHT22;26146;51.114;5.654;2022-08-01T15:01:42;26.90;85.10
40434;DHT22;26146;51.114;5.654;2022-08-01T15:05:43;27.10;83.30
40434;DHT22;26146;51.114;5.654;2022-08-01T15:09:45;27.00;83.00
40434;DHT22;26146;51.114;5.654;2022-08-01T15:13:46;26.50;84.80
40434;DHT22;26146;51.114;5.654;2022-08-01T15:18:07;26.10;85.20
40434;DHT22;26146;51.114;5.654;2022-08-01T15:22:08;26.00;86.10
40434;DHT22;26146;51.114;5.654;2022-08-01T15:26:09;25.90;85.00
40434;DHT22;26146;51.114;5.654;2022-08-01T15:30:14;25.90;85.10
40434;DHT22;26146;51.114;5.654;2022-08-01T15:34:17;26.50;85.10
40434;DHT22;26146;51.114;5.654;2022-08-01T15:38:18;26.70;85.00
40434;DHT22;26146;51.114;5.654;2022-08-01T15:42:20;26.50;86.30
40434;DHT22;26146;51.114;5.654;2022-08-01T15:46:21;26.50;85.90
40434;DHT22;26146;51.114;5.654;2022-08-01T15:50:22;26.20;87.50
40434;DHT22;26146;51.114;5.654;2022-08-01T15:54:23;26.20;88.00
40434;DHT22;26146;51.114;5.654;2022-08-01T15:58:35;26.00;87.60
40434;DHT22;26146;51.114;5.654;2022-08-01T16:02:36;25.80;87.60
40434;DHT22;26146;51.114;5.654;2022-08-01T16:06:39;25.60;88.30
40434;DHT22;26146;51.114;5.654;2022-08-01T16:10:41;25.70;87.90
40434;DHT22;26146;51.114;5.654;2022-08-01T16:14:42;25.60;87.50
40434;DHT22;26146;51.114;5.654;2022-08-01T16:18:43;25.80;86.50
40434;DHT22;26146;51.114;5.654;2022-08-01T16:22:45;25.60;85.80
40434;DHT22;26146;51.114;5.654;2022-08-01T16:26:51;25.60;86.20
40434;DHT22;26146;51.114;5.654;2022-08-01T16:30:58;25.60;87.30
40434;DHT22;26146;51.114;5.654;2022-08-01T16:34:59;25.50;87.60
40434;DHT22;26146;51.114;5.654;2022-08-01T16:39:00;25.60;86.10
40434;DHT22;26146;51.114;5.654;2022-08-01T16:43:01;25.50;86.20
40434;DHT22;26146;51.114;5.654;2022-08-01T16:47:02;25.40;86.60
40434;DHT22;26146;51.114;5.654;2022-08-01T16:51:04;25.30;85.60
40434;DHT22;26146;51.114;5.654;2022-08-01T16:55:05;25.20;85.00
40434;DHT22;26146;51.114;5.654;2022-08-01T16:59:09;25.10;85.50
40434;DHT22;26146;51.114;5.654;2022-08-01T17:03:11;25.00;85.60
40434;DHT22;26146;51.114;5.654;2022-08-01T17:07:12;25.20;85.70
40434;DHT22;26146;51.114;5.654;2022-08-01T17:11:13;24.90;85.40
40434;DHT22;26146;51.114;5.654;2022-08-01T17:15:14;25.00;84.90
40434;DHT22;26146;51.114;5.654;2022-08-01T17:19:15;24.90;85.50
40434;DHT22;26146;51.114;5.654;2022-08-01T17:23:17;24.80;86.30
40434;DHT22;26146;51.114;5.654;2022-08-01T17:27:19;24.90;85.30
40434;DHT22;26146;51.114;5.654;2022-08-01T17:31:20;24.80;85.90
40434;DHT22;26146;51.114;5.654;2022-08-01T17:35:21;24.70;87.70
40434;DHT22;26146;51.114;5.654;2022-08-01T17:39:21;24.70;88.00
40434;DHT22;26146;51.114;5.654;2022-08-01T17:43:25;24.70;88.20
40434;DHT22;26146;51.114;5.654;2022-08-01T17:47:25;24.70;88.40
40434;DHT22;26146;51.114;5.654;2022-08-01T17:51:27;24.70;88.30
40434;DHT22;26146;51.114;5.654;2022-08-01T17:55:34;24.50;88.60
40434;DHT22;26146;51.114;5.654;2022-08-01T17:59:35;24.40;88.70
40434;DHT22;26146;51.114;5.654;2022-08-01T18:03:38;24.30;89.10
40434;DHT22;26146;51.114;5.654;2022-08-01T18:07:39;24.30;89.20
40434;DHT22;26146;51.114;5.654;2022-08-01T18:11:40;24.30;88.90
40434;DHT22;26146;51.114;5.654;2022-08-01T18:15:41;24.30;88.60
40434;DHT22;26146;51.114;5.654;2022-08-01T18:19:43;24.40;88.70
40434;DHT22;26146;51.114;5.654;2022-08-01T18:23:44;24.30;88.20
40434;DHT22;26146;51.114;5.654;2022-08-01T18:27:45;24.20;89.20
40434;DHT22;26146;51.114;5.654;2022-08-01T18:31:46;24.10;88.60
40434;DHT22;26146;51.114;5.654;2022-08-01T18:35:47;24.00;88.70
40434;DHT22;26146;51.114;5.654;2022-08-01T18:39:48;23.70;89.40
40434;DHT22;26146;51.114;5.654;2022-08-01T18:43:50;23.70;89.60
40434;DHT22;26146;51.114;5.654;2022-08-01T18:47:52;23.60;89.90
40434;DHT22;26146;51.114;5.654;2022-08-01T18:51:53;23.70;90.10
40434;DHT22;26146;51.114;5.654;2022-08-01T18:55:56;23.60;90.30
40434;DHT22;26146;51.114;5.654;2022-08-01T18:59:57;23.50;90.40
40434;DHT22;26146;51.114;5.654;2022-08-01T19:03:58;23.50;90.50
40434;DHT22;26146;51.114;5.654;2022-08-01T19:08:00;23.40;90.60
40434;DHT22;26146;51.114;5.654;2022-08-01T19:12:02;23.20;90.80
40434;DHT22;26146;51.114;5.654;2022-08-01T19:16:05;23.00;91.20
40434;DHT22;26146;51.114;5.654;2022-08-01T19:20:07;22.80;91.70
40434;DHT22;26146;51.114;5.654;2022-08-01T19:24:08;22.90;91.30
40434;DHT22;26146;51.114;5.654;2022-08-01T19:28:23;22.80;91.40
40434;DHT22;26146;51.114;5.654;2022-08-01T19:32:26;22.90;91.30
40434;DHT22;26146;51.114;5.654;2022-08-01T19:36:29;22.70;91.60
40434;DHT22;26146;51.114;5.654;2022-08-01T19:40:30;22.60;91.80
40434;DHT22;26146;51.114;5.654;2022-08-01T19:44:32;22.40;92.10
40434;DHT22;26146;51.114;5.654;2022-08-01T19:48:39;22.20;92.50
40434;DHT22;26146;51.114;5.654;2022-08-01T19:52:43;22.20;92.80
40434;DHT22;26146;51.114;5.654;2022-08-01T19:56:45;22.10;93.10
40434;DHT22;26146;51.114;5.654;2022-08-01T20:00:47;22.10;93.30
40434;DHT22;26146;51.114;5.654;2022-08-01T20:04:49;21.90;93.60
40434;DHT22;26146;51.114;5.654;2022-08-01T20:08:53;21.70;93.90
40434;DHT22;26146;51.114;5.654;2022-08-01T20:12:56;21.50;94.20
40434;DHT22;26146;51.114;5.654;2022-08-01T20:16:57;21.40;94.70
40434;DHT22;26146;51.114;5.654;2022-08-01T20:20:59;21.20;95.20
40434;DHT22;26146;51.114;5.654;2022-08-01T20:25:03;21.20;95.20
40434;DHT22;26146;51.114;5.654;2022-08-01T20:29:04;21.00;95.40
40434;DHT22;26146;51.114;5.654;2022-08-01T20:33:06;20.90;95.70
40434;DHT22;26146;51.114;5.654;2022-08-01T20:37:08;20.80;95.90
40434;DHT22;26146;51.114;5.654;2022-08-01T20:41:10;20.70;96.20
40434;DHT22;26146;51.114;5.654;2022-08-01T20:45:11;20.60;96.30
40434;DHT22;26146;51.114;5.654;2022-08-01T20:49:12;20.60;96.40
40434;DHT22;26146;51.114;5.654;2022-08-01T20:53:13;20.50;96.50
40434;DHT22;26146;51.114;5.654;2022-08-01T20:57:17;20.40;96.80
40434;DHT22;26146;51.114;5.654;2022-08-01T21:01:25;20.20;97.10
40434;DHT22;26146;51.114;5.654;2022-08-01T21:05:34;20.10;97.60
40434;DHT22;26146;51.114;5.654;2022-08-01T21:09:37;20.00;97.50
40434;DHT22;26146;51.114;5.654;2022-08-01T21:13:43;19.80;97.70
40434;DHT22;26146;51.114;5.654;2022-08-01T21:18:03;19.70;98.00
40434;DHT22;26146;51.114;5.654;2022-08-01T21:22:28;19.60;98.40
40434;DHT22;26146;51.114;5.654;2022-08-01T21:26:34;19.60;98.30
40434;DHT22;26146;51.114;5.654;2022-08-01T21:30:35;19.50;98.50
40434;DHT22;26146;51.114;5.654;2022-08-01T21:34:37;19.30;98.60
40434;DHT22;26146;51.114;5.654;2022-08-01T21:38:39;19.30;98.80
40434;DHT22;26146;51.114;5.654;2022-08-01T21:42:42;19.10;99.00
40434;DHT22;26146;51.114;5.654;2022-08-01T21:46:46;19.10;99.10
40434;DHT22;26146;51.114;5.654;2022-08-01T21:50:53;19.10;99.20
40434;DHT22;26146;51.114;5.654;2022-08-01T21:55:27;19.10;99.30
40434;DHT22;26146;51.114;5.654;2022-08-01T21:59:57;19.00;99.40
40434;DHT22;26146;51.114;5.654;2022-08-01T22:04:01;18.90;99.40
40434;DHT22;26146;51.114;5.654;2022-08-01T22:08:06;18.90;99.50
40434;DHT22;26146;51.114;5.654;2022-08-01T22:12:09;18.80;99.60
40434;DHT22;26146;51.114;5.654;2022-08-01T22:16:13;18.80;99.50
40434;DHT22;26146;51.114;5.654;2022-08-01T22:20:15;18.70;99.50
40434;DHT22;26146;51.114;5.654;2022-08-01T22:24:16;18.60;99.70
40434;DHT22;26146;51.114;5.654;2022-08-01T22:28:17;18.60;99.70
40434;DHT22;26146;51.114;5.654;2022-08-01T22:32:19;18.50;99.70
40434;DHT22;26146;51.114;5.654;2022-08-01T22:36:20;18.40;99.80
40434;DHT22;26146;51.114;5.654;2022-08-01T22:40:21;18.40;99.90
40434;DHT22;26146;51.114;5.654;2022-08-01T22:44:28;18.40;99.90
40434;DHT22;26146;51.114;5.654;2022-08-01T22:48:45;18.40;99.90
40434;DHT22;26146;51.114;5.654;2022-08-01T22:53:09;18.30;99.90
40434;DHT22;26146;51.114;5.654;2022-08-01T22:57:19;18.20;99.90
40434;DHT22;26146;51.114;5.654;2022-08-01T23:01:21;18.10;99.90
40434;DHT22;26146;51.114;5.654;2022-08-01T23:05:25;18.10;99.90
40434;DHT22;26146;51.114;5.654;2022-08-01T23:09:29;18.00;99.90
40434;DHT22;26146;51.114;5.654;2022-08-01T23:13:33;18.00;99.90
40434;DHT22;26146;51.114;5.654;2022-08-01T23:17:34;18.10;99.90
40434;DHT22;26146;51.114;5.654;2022-08-01T23:21:35;18.00;99.60
40434;DHT22;26146;51.114;5.654;2022-08-01T23:25:40;18.00;99.50
40434;DHT22;26146;51.114;5.654;2022-08-01T23:29:46;18.10;99.50
40434;DHT22;26146;51.114;5.654;2022-08-01T23:33:48;18.00;99.60
40434;DHT22;26146;51.114;5.654;2022-08-01T23:37:49;18.00;99.60
40434;DHT22;26146;51.114;5.654;2022-08-01T23:41:50;18.00;99.70
40434;DHT22;26146;51.114;5.654;2022-08-01T23:45:51;17.90;99.70
40434;DHT22;26146;51.114;5.654;2022-08-01T23:49:52;17.90;99.50
40434;DHT22;26146;51.114;5.654;2022-08-01T23:53:53;17.80;99.60
40434;DHT22;26146;51.114;5.654;2022-08-01T23:57:54;17.80;99.60
